sensor_id;sensor_type;location;lat;lon;timestamp;P1;durP1;ratioP1;P2;durP2;ratioP2
45684;SDS011;46836;48.388;16.210;2023-06-10T00:02:17;10.60;;;9.60;;
45684;SDS011;46836;48.388;16.210;2023-06-10T00:04:45;15.93;;;10.00;;
45684;SDS011;46836;48.388;16.210;2023-06-10T00:07:13;11.63;;;9.77;;
45684;SDS011;46836;48.388;16.210;2023-06-10T00:09:40;11.17;;;10.07;;
45684;SDS011;46836;48.388;16.210;2023-06-10T00:12:07;10.80;;;9.23;;
45684;SDS011;46836;48.388;16.210;2023-06-10T00:14:38;11.03;;;9.90;;
45684;SDS011;46836;48.388;16.210;2023-06-10T00:17:09;11.40;;;10.20;;
45684;SDS011;46836;48.388;16.210;2023-06-10T00:19:36;10.83;;;9.70;;
45684;SDS011;46836;48.388;16.210;2023-06-10T00:22:08;12.23;;;10.73;;
45684;SDS011;46836;48.388;16.210;2023-06-10T00:24:38;12.80;;;11.07;;
45684;SDS011;46836;48.388;16.210;2023-06-10T00:27:05;12.80;;;11.30;;
45684;SDS011;46836;48.388;16.210;2023-06-10T00:29:34;11.60;;;10.40;;
45684;SDS011;46836;48.388;16.210;2023-06-10T00:32:01;13.63;;;10.73;;
45684;SDS011;46836;48.388;16.210;2023-06-10T00:34:29;11.57;;;10.47;;
45684;SDS011;46836;48.388;16.210;2023-06-10T00:36:57;12.90;;;11.60;;
45684;SDS011;46836;48.388;16.210;2023-06-10T00:39:24;12.33;;;10.97;;
45684;SDS011;46836;48.388;16.210;2023-06-10T00:41:51;11.43;;;10.23;;
45684;SDS011;46836;48.388;16.210;2023-06-10T00:44:18;12.77;;;11.40;;
45684;SDS011;46836;48.388;16.210;2023-06-10T00:46:45;11.97;;;10.73;;
45684;SDS011;46836;48.388;16.210;2023-06-10T00:49:12;12.70;;;11.50;;
45684;SDS011;46836;48.388;16.210;2023-06-10T00:51:39;13.10;;;11.90;;
45684;SDS011;46836;48.388;16.210;2023-06-10T00:54:07;14.80;;;11.40;;
45684;SDS011;46836;48.388;16.210;2023-06-10T00:56:34;12.57;;;11.27;;
45684;SDS011;46836;48.388;16.210;2023-06-10T00:59:03;17.00;;;10.80;;
45684;SDS011;46836;48.388;16.210;2023-06-10T01:01:30;11.97;;;10.70;;
45684;SDS011;46836;48.388;16.210;2023-06-10T01:03:58;11.60;;;10.43;;
45684;SDS011;46836;48.388;16.210;2023-06-10T01:06:36;11.93;;;10.70;;
45684;SDS011;46836;48.388;16.210;2023-06-10T01:15:05;11.70;;;10.50;;
45684;SDS011;46836;48.388;16.210;2023-06-10T01:17:37;13.70;;;12.30;;
45684;SDS011;46836;48.388;16.210;2023-06-10T01:20:26;13.33;;;12.13;;
45684;SDS011;46836;48.388;16.210;2023-06-10T01:22:55;15.20;;;13.60;;
45684;SDS011;46836;48.388;16.210;2023-06-10T01:25:24;14.97;;;13.50;;
45684;SDS011;46836;48.388;16.210;2023-06-10T01:28:02;14.07;;;12.60;;
45684;SDS011;46836;48.388;16.210;2023-06-10T01:33:37;13.20;;;11.63;;
45684;SDS011;46836;48.388;16.210;2023-06-10T01:36:09;13.57;;;12.13;;
45684;SDS011;46836;48.388;16.210;2023-06-10T01:38:39;14.77;;;13.27;;
45684;SDS011;46836;48.388;16.210;2023-06-10T01:41:09;13.20;;;11.80;;
45684;SDS011;46836;48.388;16.210;2023-06-10T01:43:38;13.80;;;12.20;;
45684;SDS011;46836;48.388;16.210;2023-06-10T01:46:06;14.23;;;12.80;;
45684;SDS011;46836;48.388;16.210;2023-06-10T01:48:33;13.70;;;12.00;;
45684;SDS011;46836;48.388;16.210;2023-06-10T01:51:01;13.97;;;12.33;;
45684;SDS011;46836;48.388;16.210;2023-06-10T01:53:28;14.03;;;12.63;;
45684;SDS011;46836;48.388;16.210;2023-06-10T01:55:55;15.97;;;14.33;;
45684;SDS011;46836;48.388;16.210;2023-06-10T01:58:22;13.90;;;12.60;;
45684;SDS011;46836;48.388;16.210;2023-06-10T02:00:49;13.93;;;12.53;;
45684;SDS011;46836;48.388;16.210;2023-06-10T02:03:16;12.97;;;11.57;;
45684;SDS011;46836;48.388;16.210;2023-06-10T02:05:45;13.60;;;12.30;;
45684;SDS011;46836;48.388;16.210;2023-06-10T02:08:12;16.27;;;11.97;;
45684;SDS011;46836;48.388;16.210;2023-06-10T02:10:39;13.87;;;12.13;;
45684;SDS011;46836;48.388;16.210;2023-06-10T02:13:07;12.00;;;10.97;;
45684;SDS011;46836;48.388;16.210;2023-06-10T02:15:34;14.13;;;12.73;;
45684;SDS011;46836;48.388;16.210;2023-06-10T02:18:01;13.10;;;11.40;;
45684;SDS011;46836;48.388;16.210;2023-06-10T02:20:29;14.17;;;12.67;;
45684;SDS011;46836;48.388;16.210;2023-06-10T02:22:56;12.87;;;11.63;;
45684;SDS011;46836;48.388;16.210;2023-06-10T02:25:23;17.60;;;12.67;;
45684;SDS011;46836;48.388;16.210;2023-06-10T02:27:52;12.97;;;11.70;;
45684;SDS011;46836;48.388;16.210;2023-06-10T02:30:19;11.93;;;10.63;;
45684;SDS011;46836;48.388;16.210;2023-06-10T02:32:46;12.23;;;10.83;;
45684;SDS011;46836;48.388;16.210;2023-06-10T02:35:14;11.80;;;10.77;;
45684;SDS011;46836;48.388;16.210;2023-06-10T02:37:42;11.63;;;10.50;;
45684;SDS011;46836;48.388;16.210;2023-06-10T02:40:10;12.63;;;11.33;;
45684;SDS011;46836;48.388;16.210;2023-06-10T02:42:38;12.60;;;11.10;;
45684;SDS011;46836;48.388;16.210;2023-06-10T02:45:05;11.60;;;10.53;;
45684;SDS011;46836;48.388;16.210;2023-06-10T02:47:33;11.87;;;10.67;;
45684;SDS011;46836;48.388;16.210;2023-06-10T02:50:00;10.70;;;9.57;;
45684;SDS011;46836;48.388;16.210;2023-06-10T02:52:27;10.57;;;9.57;;
45684;SDS011;46836;48.388;16.210;2023-06-10T02:54:55;11.93;;;10.73;;
45684;SDS011;46836;48.388;16.210;2023-06-10T02:57:22;11.90;;;10.40;;
45684;SDS011;46836;48.388;16.210;2023-06-10T02:59:49;10.63;;;9.73;;
45684;SDS011;46836;48.388;16.210;2023-06-10T03:02:17;13.70;;;9.57;;
45684;SDS011;46836;48.388;16.210;2023-06-10T03:04:44;11.93;;;9.80;;
45684;SDS011;46836;48.388;16.210;2023-06-10T03:07:11;13.97;;;10.27;;
45684;SDS011;46836;48.388;16.210;2023-06-10T03:09:38;14.10;;;10.80;;
45684;SDS011;46836;48.388;16.210;2023-06-10T03:12:08;12.63;;;10.57;;
45684;SDS011;46836;48.388;16.210;2023-06-10T03:14:36;10.33;;;9.30;;
45684;SDS011;46836;48.388;16.210;2023-06-10T03:17:05;12.43;;;10.80;;
45684;SDS011;46836;48.388;16.210;2023-06-10T03:19:32;11.67;;;10.47;;
45684;SDS011;46836;48.388;16.210;2023-06-10T03:22:09;11.13;;;10.13;;
45684;SDS011;46836;48.388;16.210;2023-06-10T03:24:38;11.57;;;10.47;;
45684;SDS011;46836;48.388;16.210;2023-06-10T03:27:07;11.07;;;9.97;;
45684;SDS011;46836;48.388;16.210;2023-06-10T03:29:34;11.50;;;9.77;;
45684;SDS011;46836;48.388;16.210;2023-06-10T03:32:02;10.93;;;9.83;;
45684;SDS011;46836;48.388;16.210;2023-06-10T03:34:29;11.70;;;9.20;;
45684;SDS011;46836;48.388;16.210;2023-06-10T03:36:57;11.90;;;10.50;;
45684;SDS011;46836;48.388;16.210;2023-06-10T03:39:25;10.97;;;9.60;;
45684;SDS011;46836;48.388;16.210;2023-06-10T03:41:55;13.60;;;10.60;;
45684;SDS011;46836;48.388;16.210;2023-06-10T03:44:27;11.67;;;9.80;;
45684;SDS011;46836;48.388;16.210;2023-06-10T03:46:54;11.17;;;9.93;;
45684;SDS011;46836;48.388;16.210;2023-06-10T03:49:22;11.20;;;9.63;;
45684;SDS011;46836;48.388;16.210;2023-06-10T03:51:52;11.17;;;10.17;;
45684;SDS011;46836;48.388;16.210;2023-06-10T03:54:20;10.80;;;9.80;;
45684;SDS011;46836;48.388;16.210;2023-06-10T03:56:47;11.77;;;10.57;;
45684;SDS011;46836;48.388;16.210;2023-06-10T03:59:14;12.60;;;10.23;;
45684;SDS011;46836;48.388;16.210;2023-06-10T04:01:42;11.60;;;10.50;;
45684;SDS011;46836;48.388;16.210;2023-06-10T04:04:11;14.03;;;11.03;;
45684;SDS011;46836;48.388;16.210;2023-06-10T04:06:45;13.10;;;11.30;;
45684;SDS011;46836;48.388;16.210;2023-06-10T04:09:12;11.37;;;10.27;;
45684;SDS011;46836;48.388;16.210;2023-06-10T04:11:39;11.63;;;10.50;;
45684;SDS011;46836;48.388;16.210;2023-06-10T04:14:07;12.50;;;11.13;;
45684;SDS011;46836;48.388;16.210;2023-06-10T04:16:34;11.47;;;10.20;;
45684;SDS011;46836;48.388;16.210;2023-06-10T04:19:01;12.03;;;10.50;;
45684;SDS011;46836;48.388;16.210;2023-06-10T04:21:29;12.20;;;11.00;;
45684;SDS011;46836;48.388;16.210;2023-06-10T04:23:56;14.17;;;11.17;;
45684;SDS011;46836;48.388;16.210;2023-06-10T04:26:23;16.70;;;11.30;;
45684;SDS011;46836;48.388;16.210;2023-06-10T04:28:50;12.00;;;10.73;;
45684;SDS011;46836;48.388;16.210;2023-06-10T04:31:17;11.10;;;10.10;;
45684;SDS011;46836;48.388;16.210;2023-06-10T04:33:44;11.70;;;10.60;;
45684;SDS011;46836;48.388;16.210;2023-06-10T04:36:11;12.80;;;10.90;;
45684;SDS011;46836;48.388;16.210;2023-06-10T04:38:38;13.53;;;10.30;;
45684;SDS011;46836;48.388;16.210;2023-06-10T04:41:07;10.77;;;9.77;;
45684;SDS011;46836;48.388;16.210;2023-06-10T04:43:34;12.77;;;11.57;;
45684;SDS011;46836;48.388;16.210;2023-06-10T04:46:01;13.13;;;10.27;;
45684;SDS011;46836;48.388;16.210;2023-06-10T04:48:29;10.50;;;9.60;;
45684;SDS011;46836;48.388;16.210;2023-06-10T04:50:57;11.30;;;10.20;;
45684;SDS011;46836;48.388;16.210;2023-06-10T04:53:25;11.40;;;10.30;;
45684;SDS011;46836;48.388;16.210;2023-06-10T04:55:52;11.63;;;10.40;;
45684;SDS011;46836;48.388;16.210;2023-06-10T04:58:19;13.97;;;12.33;;
45684;SDS011;46836;48.388;16.210;2023-06-10T05:00:46;14.47;;;10.90;;
45684;SDS011;46836;48.388;16.210;2023-06-10T05:03:13;13.90;;;11.57;;
45684;SDS011;46836;48.388;16.210;2023-06-10T05:05:41;12.87;;;10.93;;
45684;SDS011;46836;48.388;16.210;2023-06-10T05:08:08;10.73;;;9.67;;
45684;SDS011;46836;48.388;16.210;2023-06-10T05:10:35;12.77;;;11.53;;
45684;SDS011;46836;48.388;16.210;2023-06-10T05:13:02;12.80;;;11.60;;
45684;SDS011;46836;48.388;16.210;2023-06-10T05:15:29;13.27;;;10.70;;
45684;SDS011;46836;48.388;16.210;2023-06-10T05:17:57;15.07;;;11.47;;
45684;SDS011;46836;48.388;16.210;2023-06-10T05:20:25;12.90;;;11.60;;
45684;SDS011;46836;48.388;16.210;2023-06-10T05:22:53;17.30;;;10.47;;
45684;SDS011;46836;48.388;16.210;2023-06-10T05:25:20;12.30;;;11.20;;
45684;SDS011;46836;48.388;16.210;2023-06-10T05:27:47;12.83;;;11.63;;
45684;SDS011;46836;48.388;16.210;2023-06-10T05:30:14;13.63;;;11.93;;
45684;SDS011;46836;48.388;16.210;2023-06-10T05:32:43;12.67;;;11.47;;
45684;SDS011;46836;48.388;16.210;2023-06-10T05:35:10;14.07;;;11.60;;
45684;SDS011;46836;48.388;16.210;2023-06-10T05:37:37;16.00;;;13.07;;
45684;SDS011;46836;48.388;16.210;2023-06-10T05:40:05;14.00;;;11.80;;
45684;SDS011;46836;48.388;16.210;2023-06-10T05:42:33;12.80;;;11.60;;
45684;SDS011;46836;48.388;16.210;2023-06-10T05:45:00;14.10;;;12.70;;
45684;SDS011;46836;48.388;16.210;2023-06-10T05:47:27;13.10;;;11.70;;
45684;SDS011;46836;48.388;16.210;2023-06-10T05:49:54;12.93;;;11.63;;
45684;SDS011;46836;48.388;16.210;2023-06-10T05:52:21;14.70;;;13.30;;
45684;SDS011;46836;48.388;16.210;2023-06-10T05:54:49;16.10;;;14.60;;
45684;SDS011;46836;48.388;16.210;2023-06-10T05:57:16;14.80;;;13.30;;
45684;SDS011;46836;48.388;16.210;2023-06-10T05:59:44;16.67;;;15.00;;
45684;SDS011;46836;48.388;16.210;2023-06-10T06:02:11;22.13;;;15.17;;
45684;SDS011;46836;48.388;16.210;2023-06-10T06:04:38;24.30;;;22.23;;
45684;SDS011;46836;48.388;16.210;2023-06-10T06:07:05;17.60;;;15.97;;
45684;SDS011;46836;48.388;16.210;2023-06-10T06:09:32;15.60;;;14.17;;
45684;SDS011;46836;48.388;16.210;2023-06-10T06:11:59;18.10;;;16.40;;
45684;SDS011;46836;48.388;16.210;2023-06-10T06:14:30;17.90;;;15.43;;
45684;SDS011;46836;48.388;16.210;2023-06-10T06:16:58;18.90;;;17.00;;
45684;SDS011;46836;48.388;16.210;2023-06-10T06:19:25;19.07;;;17.27;;
45684;SDS011;46836;48.388;16.210;2023-06-10T06:21:52;17.00;;;15.27;;
45684;SDS011;46836;48.388;16.210;2023-06-10T06:24:19;16.87;;;15.17;;
45684;SDS011;46836;48.388;16.210;2023-06-10T06:26:47;21.07;;;17.57;;
45684;SDS011;46836;48.388;16.210;2023-06-10T06:29:14;19.83;;;16.10;;
45684;SDS011;46836;48.388;16.210;2023-06-10T06:31:41;20.00;;;17.90;;
45684;SDS011;46836;48.388;16.210;2023-06-10T06:34:08;20.67;;;18.57;;
45684;SDS011;46836;48.388;16.210;2023-06-10T06:36:36;19.97;;;18.07;;
45684;SDS011;46836;48.388;16.210;2023-06-10T06:39:03;19.83;;;17.83;;
45684;SDS011;46836;48.388;16.210;2023-06-10T06:41:30;20.73;;;18.63;;
45684;SDS011;46836;48.388;16.210;2023-06-10T06:43:57;19.30;;;17.30;;
45684;SDS011;46836;48.388;16.210;2023-06-10T06:46:24;19.10;;;17.20;;
45684;SDS011;46836;48.388;16.210;2023-06-10T06:48:51;20.30;;;18.07;;
45684;SDS011;46836;48.388;16.210;2023-06-10T06:51:18;20.80;;;18.10;;
45684;SDS011;46836;48.388;16.210;2023-06-10T06:53:46;19.67;;;17.57;;
45684;SDS011;46836;48.388;16.210;2023-06-10T06:56:13;16.87;;;15.37;;
45684;SDS011;46836;48.388;16.210;2023-06-10T06:58:40;19.23;;;17.43;;
45684;SDS011;46836;48.388;16.210;2023-06-10T07:01:08;17.50;;;15.80;;
45684;SDS011;46836;48.388;16.210;2023-06-10T07:03:35;18.10;;;16.30;;
45684;SDS011;46836;48.388;16.210;2023-06-10T07:06:02;18.17;;;16.27;;
45684;SDS011;46836;48.388;16.210;2023-06-10T07:08:29;17.43;;;15.83;;
45684;SDS011;46836;48.388;16.210;2023-06-10T07:10:56;18.23;;;16.43;;
45684;SDS011;46836;48.388;16.210;2023-06-10T07:13:23;15.70;;;14.20;;
45684;SDS011;46836;48.388;16.210;2023-06-10T07:15:51;16.20;;;14.70;;
45684;SDS011;46836;48.388;16.210;2023-06-10T07:18:18;16.03;;;14.53;;
45684;SDS011;46836;48.388;16.210;2023-06-10T07:20:45;15.57;;;14.17;;
45684;SDS011;46836;48.388;16.210;2023-06-10T07:23:12;15.37;;;13.97;;
45684;SDS011;46836;48.388;16.210;2023-06-10T07:25:40;15.53;;;14.13;;
45684;SDS011;46836;48.388;16.210;2023-06-10T07:28:08;16.17;;;14.77;;
45684;SDS011;46836;48.388;16.210;2023-06-10T07:30:35;17.67;;;15.97;;
45684;SDS011;46836;48.388;16.210;2023-06-10T07:33:02;17.17;;;15.47;;
45684;SDS011;46836;48.388;16.210;2023-06-10T07:35:29;17.00;;;15.33;;
45684;SDS011;46836;48.388;16.210;2023-06-10T07:37:57;16.30;;;14.60;;
45684;SDS011;46836;48.388;16.210;2023-06-10T07:40:24;16.80;;;15.20;;
45684;SDS011;46836;48.388;16.210;2023-06-10T07:42:51;17.37;;;15.87;;
45684;SDS011;46836;48.388;16.210;2023-06-10T07:45:19;18.00;;;15.37;;
45684;SDS011;46836;48.388;16.210;2023-06-10T07:47:46;16.00;;;14.27;;
45684;SDS011;46836;48.388;16.210;2023-06-10T07:50:13;16.83;;;15.33;;
45684;SDS011;46836;48.388;16.210;2023-06-10T07:52:40;17.67;;;15.97;;
45684;SDS011;46836;48.388;16.210;2023-06-10T07:55:07;17.30;;;15.50;;
45684;SDS011;46836;48.388;16.210;2023-06-10T07:57:35;17.30;;;15.80;;
45684;SDS011;46836;48.388;16.210;2023-06-10T08:00:05;18.00;;;16.30;;
45684;SDS011;46836;48.388;16.210;2023-06-10T08:02:33;19.13;;;17.17;;
45684;SDS011;46836;48.388;16.210;2023-06-10T08:05:00;18.80;;;17.00;;
45684;SDS011;46836;48.388;16.210;2023-06-10T08:07:27;18.30;;;16.40;;
45684;SDS011;46836;48.388;16.210;2023-06-10T08:09:54;18.60;;;16.80;;
45684;SDS011;46836;48.388;16.210;2023-06-10T08:12:21;17.33;;;15.53;;
45684;SDS011;46836;48.388;16.210;2023-06-10T08:14:48;17.77;;;16.03;;
45684;SDS011;46836;48.388;16.210;2023-06-10T08:17:16;21.77;;;16.70;;
45684;SDS011;46836;48.388;16.210;2023-06-10T08:19:43;18.53;;;16.70;;
45684;SDS011;46836;48.388;16.210;2023-06-10T08:22:10;19.10;;;17.33;;
45684;SDS011;46836;48.388;16.210;2023-06-10T08:24:37;19.53;;;17.63;;
45684;SDS011;46836;48.388;16.210;2023-06-10T08:27:04;19.70;;;17.90;;
45684;SDS011;46836;48.388;16.210;2023-06-10T08:29:32;20.53;;;18.47;;
45684;SDS011;46836;48.388;16.210;2023-06-10T08:31:59;19.80;;;17.80;;
45684;SDS011;46836;48.388;16.210;2023-06-10T08:34:27;18.07;;;16.27;;
45684;SDS011;46836;48.388;16.210;2023-06-10T08:36:54;18.97;;;17.07;;
45684;SDS011;46836;48.388;16.210;2023-06-10T08:39:22;17.77;;;16.00;;
45684;SDS011;46836;48.388;16.210;2023-06-10T08:44:41;19.70;;;17.80;;
45684;SDS011;46836;48.388;16.210;2023-06-10T08:47:13;20.10;;;18.00;;
45684;SDS011;46836;48.388;16.210;2023-06-10T08:49:47;21.43;;;19.33;;
45684;SDS011;46836;48.388;16.210;2023-06-10T08:52:18;20.30;;;18.40;;
45684;SDS011;46836;48.388;16.210;2023-06-10T08:54:56;18.80;;;17.20;;
45684;SDS011;46836;48.388;16.210;2023-06-10T08:57:26;18.73;;;16.83;;
45684;SDS011;46836;48.388;16.210;2023-06-10T08:59:54;18.60;;;16.90;;
45684;SDS011;46836;48.388;16.210;2023-06-10T09:02:23;18.37;;;16.17;;
45684;SDS011;46836;48.388;16.210;2023-06-10T09:04:51;17.80;;;16.00;;
45684;SDS011;46836;48.388;16.210;2023-06-10T09:07:19;19.63;;;17.63;;
45684;SDS011;46836;48.388;16.210;2023-06-10T09:09:46;18.47;;;16.67;;
45684;SDS011;46836;48.388;16.210;2023-06-10T09:12:15;19.70;;;17.90;;
45684;SDS011;46836;48.388;16.210;2023-06-10T09:14:42;17.73;;;16.10;;
45684;SDS011;46836;48.388;16.210;2023-06-10T09:17:10;18.33;;;16.43;;
45684;SDS011;46836;48.388;16.210;2023-06-10T09:19:38;19.70;;;17.70;;
45684;SDS011;46836;48.388;16.210;2023-06-10T09:22:06;18.00;;;16.13;;
45684;SDS011;46836;48.388;16.210;2023-06-10T09:24:33;18.23;;;16.33;;
45684;SDS011;46836;48.388;16.210;2023-06-10T09:27:04;18.60;;;16.80;;
45684;SDS011;46836;48.388;16.210;2023-06-10T09:29:47;17.10;;;15.50;;
45684;SDS011;46836;48.388;16.210;2023-06-10T09:32:18;19.80;;;17.80;;
45684;SDS011;46836;48.388;16.210;2023-06-10T09:34:46;16.37;;;14.77;;
45684;SDS011;46836;48.388;16.210;2023-06-10T09:37:19;19.03;;;17.23;;
45684;SDS011;46836;48.388;16.210;2023-06-10T09:40:03;19.17;;;17.37;;
45684;SDS011;46836;48.388;16.210;2023-06-10T09:42:33;20.23;;;18.20;;
45684;SDS011;46836;48.388;16.210;2023-06-10T09:45:04;23.33;;;17.83;;
45684;SDS011;46836;48.388;16.210;2023-06-10T09:47:33;19.27;;;17.27;;
45684;SDS011;46836;48.388;16.210;2023-06-10T09:50:01;22.30;;;17.13;;
45684;SDS011;46836;48.388;16.210;2023-06-10T09:52:28;19.63;;;17.50;;
45684;SDS011;46836;48.388;16.210;2023-06-10T09:55:00;19.33;;;17.43;;
45684;SDS011;46836;48.388;16.210;2023-06-10T09:57:32;17.97;;;16.30;;
45684;SDS011;46836;48.388;16.210;2023-06-10T10:00:06;19.50;;;17.40;;
45684;SDS011;46836;48.388;16.210;2023-06-10T10:02:45;19.03;;;17.13;;
45684;SDS011;46836;48.388;16.210;2023-06-10T10:05:21;18.10;;;16.30;;
45684;SDS011;46836;48.388;16.210;2023-06-10T10:07:49;18.67;;;16.87;;
45684;SDS011;46836;48.388;16.210;2023-06-10T10:10:17;18.53;;;16.70;;
45684;SDS011;46836;48.388;16.210;2023-06-10T10:12:47;16.97;;;15.47;;
45684;SDS011;46836;48.388;16.210;2023-06-10T10:15:15;17.77;;;15.90;;
45684;SDS011;46836;48.388;16.210;2023-06-10T10:17:56;17.87;;;15.97;;
45684;SDS011;46836;48.388;16.210;2023-06-10T10:20:29;17.53;;;15.87;;
45684;SDS011;46836;48.388;16.210;2023-06-10T10:22:58;17.40;;;15.90;;
45684;SDS011;46836;48.388;16.210;2023-06-10T10:25:34;15.87;;;14.10;;
45684;SDS011;46836;48.388;16.210;2023-06-10T10:30:40;17.97;;;16.13;;
45684;SDS011;46836;48.388;16.210;2023-06-10T10:33:20;17.77;;;16.07;;
45684;SDS011;46836;48.388;16.210;2023-06-10T10:36:23;18.33;;;16.73;;
45684;SDS011;46836;48.388;16.210;2023-06-10T10:38:51;17.87;;;16.07;;
45684;SDS011;46836;48.388;16.210;2023-06-10T10:41:19;16.40;;;14.90;;
45684;SDS011;46836;48.388;16.210;2023-06-10T10:43:47;16.40;;;14.90;;
45684;SDS011;46836;48.388;16.210;2023-06-10T10:46:18;16.63;;;14.97;;
45684;SDS011;46836;48.388;16.210;2023-06-10T10:48:45;16.30;;;14.80;;
45684;SDS011;46836;48.388;16.210;2023-06-10T10:51:17;15.07;;;13.57;;
45684;SDS011;46836;48.388;16.210;2023-06-10T10:53:44;15.77;;;14.00;;
45684;SDS011;46836;48.388;16.210;2023-06-10T10:56:39;16.17;;;14.67;;
45684;SDS011;46836;48.388;16.210;2023-06-10T10:59:06;15.93;;;14.47;;
45684;SDS011;46836;48.388;16.210;2023-06-10T11:01:43;14.47;;;13.07;;
45684;SDS011;46836;48.388;16.210;2023-06-10T11:04:13;15.20;;;13.67;;
45684;SDS011;46836;48.388;16.210;2023-06-10T11:06:53;14.60;;;13.40;;
45684;SDS011;46836;48.388;16.210;2023-06-10T11:09:27;14.30;;;13.00;;
45684;SDS011;46836;48.388;16.210;2023-06-10T11:11:58;14.33;;;13.20;;
45684;SDS011;46836;48.388;16.210;2023-06-10T11:14:29;14.90;;;13.50;;
45684;SDS011;46836;48.388;16.210;2023-06-10T11:16:57;16.20;;;14.60;;
45684;SDS011;46836;48.388;16.210;2023-06-10T11:19:32;15.33;;;13.60;;
45684;SDS011;46836;48.388;16.210;2023-06-10T11:22:08;15.10;;;13.80;;
45684;SDS011;46836;48.388;16.210;2023-06-10T11:24:46;14.20;;;13.00;;
45684;SDS011;46836;48.388;16.210;2023-06-10T11:27:15;15.40;;;14.07;;
45684;SDS011;46836;48.388;16.210;2023-06-10T11:32:34;15.07;;;13.63;;
45684;SDS011;46836;48.388;16.210;2023-06-10T11:35:04;14.60;;;13.30;;
45684;SDS011;46836;48.388;16.210;2023-06-10T11:37:34;16.47;;;14.83;;
45684;SDS011;46836;48.388;16.210;2023-06-10T11:40:02;17.57;;;15.87;;
45684;SDS011;46836;48.388;16.210;2023-06-10T11:42:30;19.53;;;17.33;;
45684;SDS011;46836;48.388;16.210;2023-06-10T11:44:57;18.67;;;16.87;;
45684;SDS011;46836;48.388;16.210;2023-06-10T11:47:24;17.17;;;15.40;;
45684;SDS011;46836;48.388;16.210;2023-06-10T11:49:56;17.60;;;15.87;;
45684;SDS011;46836;48.388;16.210;2023-06-10T11:52:27;15.97;;;14.57;;
45684;SDS011;46836;48.388;16.210;2023-06-10T11:55:06;16.40;;;13.00;;
45684;SDS011;46836;48.388;16.210;2023-06-10T11:57:36;14.83;;;13.27;;
45684;SDS011;46836;48.388;16.210;2023-06-10T12:00:05;13.87;;;12.63;;
45684;SDS011;46836;48.388;16.210;2023-06-10T12:02:33;15.47;;;13.87;;
45684;SDS011;46836;48.388;16.210;2023-06-10T12:05:13;14.67;;;13.40;;
45684;SDS011;46836;48.388;16.210;2023-06-10T12:07:41;14.40;;;13.00;;
45684;SDS011;46836;48.388;16.210;2023-06-10T12:10:08;14.73;;;13.43;;
45684;SDS011;46836;48.388;16.210;2023-06-10T12:12:52;14.60;;;13.30;;
45684;SDS011;46836;48.388;16.210;2023-06-10T12:15:25;13.20;;;12.00;;
45684;SDS011;46836;48.388;16.210;2023-06-10T12:17:53;13.73;;;12.43;;
45684;SDS011;46836;48.388;16.210;2023-06-10T12:20:24;13.73;;;12.53;;
45684;SDS011;46836;48.388;16.210;2023-06-10T12:22:54;16.50;;;14.80;;
45684;SDS011;46836;48.388;16.210;2023-06-10T12:25:25;15.40;;;14.00;;
45684;SDS011;46836;48.388;16.210;2023-06-10T12:27:54;15.10;;;13.70;;
45684;SDS011;46836;48.388;16.210;2023-06-10T12:30:24;14.67;;;13.37;;
45684;SDS011;46836;48.388;16.210;2023-06-10T12:32:54;15.13;;;13.87;;
45684;SDS011;46836;48.388;16.210;2023-06-10T12:35:26;17.37;;;14.80;;
45684;SDS011;46836;48.388;16.210;2023-06-10T12:37:54;17.23;;;13.90;;
45684;SDS011;46836;48.388;16.210;2023-06-10T12:40:37;16.10;;;14.50;;
45684;SDS011;46836;48.388;16.210;2023-06-10T12:43:08;15.90;;;14.40;;
45684;SDS011;46836;48.388;16.210;2023-06-10T12:45:36;15.57;;;14.20;;
45684;SDS011;46836;48.388;16.210;2023-06-10T12:48:16;17.53;;;15.97;;
45684;SDS011;46836;48.388;16.210;2023-06-10T12:50:50;16.43;;;14.83;;
45684;SDS011;46836;48.388;16.210;2023-06-10T12:53:19;16.90;;;15.40;;
45684;SDS011;46836;48.388;16.210;2023-06-10T12:55:47;18.13;;;16.50;;
45684;SDS011;46836;48.388;16.210;2023-06-10T12:58:14;18.60;;;16.80;;
45684;SDS011;46836;48.388;16.210;2023-06-10T13:00:42;19.53;;;16.17;;
45684;SDS011;46836;48.388;16.210;2023-06-10T13:03:09;18.30;;;16.70;;
45684;SDS011;46836;48.388;16.210;2023-06-10T13:05:36;16.67;;;15.17;;
45684;SDS011;46836;48.388;16.210;2023-06-10T13:08:06;17.90;;;16.30;;
45684;SDS011;46836;48.388;16.210;2023-06-10T13:10:33;17.77;;;16.07;;
45684;SDS011;46836;48.388;16.210;2023-06-10T13:13:01;16.43;;;14.93;;
45684;SDS011;46836;48.388;16.210;2023-06-10T13:15:32;17.07;;;15.20;;
45684;SDS011;46836;48.388;16.210;2023-06-10T13:18:08;14.93;;;13.40;;
45684;SDS011;46836;48.388;16.210;2023-06-10T13:20:35;15.87;;;14.27;;
45684;SDS011;46836;48.388;16.210;2023-06-10T13:23:02;16.27;;;14.77;;
45684;SDS011;46836;48.388;16.210;2023-06-10T13:25:29;15.30;;;14.00;;
45684;SDS011;46836;48.388;16.210;2023-06-10T13:27:57;15.73;;;14.23;;
45684;SDS011;46836;48.388;16.210;2023-06-10T13:30:24;15.13;;;13.70;;
45684;SDS011;46836;48.388;16.210;2023-06-10T13:32:53;15.73;;;14.23;;
45684;SDS011;46836;48.388;16.210;2023-06-10T13:35:20;15.40;;;13.77;;
45684;SDS011;46836;48.388;16.210;2023-06-10T13:37:47;13.47;;;12.37;;
45684;SDS011;46836;48.388;16.210;2023-06-10T13:40:14;11.77;;;10.70;;
45684;SDS011;46836;48.388;16.210;2023-06-10T13:42:42;12.73;;;11.73;;
45684;SDS011;46836;48.388;16.210;2023-06-10T13:45:09;12.97;;;11.67;;
45684;SDS011;46836;48.388;16.210;2023-06-10T13:47:37;12.80;;;11.70;;
45684;SDS011;46836;48.388;16.210;2023-06-10T13:50:05;12.20;;;10.93;;
45684;SDS011;46836;48.388;16.210;2023-06-10T13:52:33;14.17;;;12.57;;
45684;SDS011;46836;48.388;16.210;2023-06-10T13:55:00;13.57;;;12.37;;
45684;SDS011;46836;48.388;16.210;2023-06-10T13:57:27;12.43;;;11.37;;
45684;SDS011;46836;48.388;16.210;2023-06-10T13:59:54;13.60;;;12.50;;
45684;SDS011;46836;48.388;16.210;2023-06-10T14:02:22;15.37;;;13.87;;
45684;SDS011;46836;48.388;16.210;2023-06-10T14:04:50;16.20;;;14.70;;
45684;SDS011;46836;48.388;16.210;2023-06-10T14:07:17;14.73;;;13.43;;
45684;SDS011;46836;48.388;16.210;2023-06-10T14:09:44;16.70;;;15.20;;
45684;SDS011;46836;48.388;16.210;2023-06-10T14:12:12;16.33;;;14.87;;
45684;SDS011;46836;48.388;16.210;2023-06-10T14:14:39;16.23;;;14.83;;
45684;SDS011;46836;48.388;16.210;2023-06-10T14:17:06;16.23;;;14.83;;
45684;SDS011;46836;48.388;16.210;2023-06-10T14:19:33;17.03;;;15.33;;
45684;SDS011;46836;48.388;16.210;2023-06-10T14:22:01;16.60;;;15.10;;
45684;SDS011;46836;48.388;16.210;2023-06-10T14:24:30;15.80;;;14.50;;
45684;SDS011;46836;48.388;16.210;2023-06-10T14:26:57;16.80;;;15.30;;
45684;SDS011;46836;48.388;16.210;2023-06-10T14:29:24;16.70;;;15.30;;
45684;SDS011;46836;48.388;16.210;2023-06-10T14:31:55;16.23;;;14.60;;
45684;SDS011;46836;48.388;16.210;2023-06-10T14:34:22;14.87;;;13.47;;
45684;SDS011;46836;48.388;16.210;2023-06-10T14:36:55;13.90;;;12.60;;